createdAt,value
2019-01-04T00:00:40.670Z,91.62
2019-01-04T00:01:40.688Z,92.94
2019-01-04T00:02:40.653Z,91.43
2019-01-04T00:03:40.645Z,91.72
2019-01-04T00:04:40.641Z,92.29
2019-01-04T00:05:40.633Z,90.86
2019-01-04T00:06:40.657Z,91.81
2019-01-04T00:07:40.616Z,92.29
2019-01-04T00:08:40.611Z,93.23
2019-01-04T00:09:40.604Z,93.99
2019-01-04T00:10:40.623Z,90.86
2019-01-04T00:11:40.586Z,93.32
2019-01-04T00:12:40.607Z,91.05
2019-01-04T00:13:40.590Z,88.79
2019-01-04T00:14:40.586Z,90.01
2019-01-04T00:15:40.565Z,90.96
2019-01-04T00:16:40.557Z,92.10
2019-01-04T00:17:40.573Z,92.76
2019-01-04T00:18:40.567Z,91.34
2019-01-04T00:19:40.541Z,92.38
2019-01-04T00:20:40.532Z,90.77
2019-01-04T00:21:40.523Z,90.30
2019-01-04T00:22:40.540Z,91.53
2019-01-04T00:23:40.507Z,93.13
2019-01-04T00:24:40.502Z,91.15
2019-01-04T00:25:40.495Z,91.15
2019-01-04T00:26:40.485Z,91.34
2019-01-04T00:27:40.512Z,90.68
2019-01-04T00:28:40.472Z,87.27
2019-01-04T00:29:40.467Z,90.11
2019-01-04T00:30:40.463Z,91.05
2019-01-04T00:31:40.454Z,90.86
2019-01-04T00:32:40.475Z,90.20
2019-01-04T00:33:40.439Z,88.98
2019-01-04T00:34:40.437Z,86.42
2019-01-04T00:35:40.431Z,86.42
2019-01-04T00:36:40.421Z,90.01
2019-01-04T00:37:40.441Z,89.45
2019-01-04T00:38:40.405Z,88.79
2019-01-04T00:39:40.408Z,88.50
2019-01-04T00:40:40.422Z,87.65
2019-01-04T00:41:40.385Z,86.99
2019-01-04T00:42:40.380Z,84.91
2019-01-04T00:43:40.460Z,87.46
2019-01-04T00:44:40.367Z,87.27
2019-01-04T00:45:40.358Z,87.18
2019-01-04T00:46:40.356Z,85.00
2019-01-04T00:47:40.372Z,85.10
2019-01-04T00:48:40.339Z,85.57
2019-01-04T00:49:40.331Z,84.72
2019-01-04T00:50:40.327Z,84.44
2019-01-04T00:51:40.320Z,86.42
2019-01-04T00:52:40.340Z,86.42
2019-01-04T00:53:40.304Z,85.66
2019-01-04T00:54:40.297Z,86.42
2019-01-04T00:55:40.291Z,85.47
2019-01-04T00:56:40.284Z,86.04
2019-01-04T00:57:40.304Z,85.00
2019-01-04T00:58:40.270Z,83.87
2019-01-04T00:59:40.264Z,84.06
2019-01-04T01:00:40.255Z,85.10
2019-01-04T01:01:40.249Z,84.53
2019-01-04T01:02:40.268Z,84.44
2019-01-04T01:03:40.236Z,85.19
2019-01-04T01:04:40.339Z,84.34
2019-01-04T01:05:40.223Z,85.19
2019-01-04T01:06:40.216Z,85.10
2019-01-04T01:07:40.237Z,83.21
2019-01-04T01:08:40.204Z,82.64
2019-01-04T01:09:40.194Z,84.53
2019-01-04T01:10:40.557Z,83.59
2019-01-04T01:11:40.187Z,82.45
2019-01-04T01:12:40.230Z,83.49
2019-01-04T01:13:40.196Z,84.91
2019-01-04T01:14:40.164Z,84.72
2019-01-04T01:15:40.157Z,84.16
2019-01-04T01:16:40.151Z,86.04
2019-01-04T01:17:40.185Z,83.97
2019-01-04T01:18:40.135Z,84.25
2019-01-04T01:19:40.126Z,84.72
2019-01-04T01:20:40.124Z,86.71
2019-01-04T01:21:40.141Z,84.16
2019-01-04T01:22:40.111Z,83.97
2019-01-04T01:23:40.130Z,85.95
2019-01-04T01:24:40.094Z,84.63
2019-01-04T01:25:40.093Z,85.38
2019-01-04T01:26:40.084Z,85.28
2019-01-04T01:27:40.075Z,87.27
2019-01-04T01:28:40.097Z,85.76
2019-01-04T01:29:40.057Z,87.84
2019-01-04T01:30:40.053Z,86.04
2019-01-04T01:31:40.047Z,85.95
2019-01-04T01:32:40.040Z,86.90
2019-01-04T01:33:40.060Z,85.00
2019-01-04T01:34:40.026Z,84.25
2019-01-04T01:35:40.022Z,87.55
2019-01-04T01:36:40.012Z,88.79
2019-01-04T01:37:40.006Z,86.71
2019-01-04T01:38:40.024Z,87.74
2019-01-04T01:39:39.990Z,86.42
2019-01-04T01:40:39.987Z,87.37
2019-01-04T01:41:39.978Z,87.27
2019-01-04T01:42:39.971Z,87.84
2019-01-04T01:43:39.991Z,89.73
2019-01-04T01:44:39.985Z,87.65
2019-01-04T01:45:39.953Z,86.52
2019-01-04T01:46:39.942Z,85.00
2019-01-04T01:47:39.936Z,87.46
2019-01-04T01:48:39.929Z,89.92
2019-01-04T01:49:39.949Z,86.42
2019-01-04T01:50:39.919Z,85.85
2019-01-04T01:51:39.910Z,84.63
2019-01-04T01:52:39.904Z,83.49
2019-01-04T01:53:39.897Z,84.81
2019-01-04T01:54:39.921Z,85.28
2019-01-04T01:55:39.883Z,87.37
2019-01-04T01:56:39.879Z,86.52
2019-01-04T01:57:39.871Z,88.22
2019-01-04T01:58:39.861Z,89.26
2019-01-04T01:59:39.883Z,88.12
2019-01-04T02:00:39.851Z,85.95
2019-01-04T02:01:39.857Z,85.57
2019-01-04T02:02:39.865Z,84.81
2019-01-04T02:03:39.832Z,83.59
2019-01-04T02:04:39.824Z,83.59
2019-01-04T02:05:39.844Z,84.53
2019-01-04T02:06:39.806Z,83.59
2019-01-04T02:07:39.806Z,86.42
2019-01-04T02:08:39.796Z,82.73
2019-01-04T02:09:39.821Z,86.14
2019-01-04T02:10:39.782Z,87.74
2019-01-04T02:11:39.805Z,87.37
2019-01-04T02:12:39.772Z,86.52
2019-01-04T02:13:39.763Z,86.23
2019-01-04T02:14:39.754Z,85.76
2019-01-04T02:15:39.779Z,87.08
2019-01-04T02:16:39.748Z,86.52
2019-01-04T02:17:39.733Z,89.73
2019-01-04T02:18:39.730Z,91.81
2019-01-04T02:19:39.721Z,88.41
2019-01-04T02:20:39.750Z,88.03
2019-01-04T02:21:39.704Z,86.14
2019-01-04T02:22:39.701Z,86.71
2019-01-04T02:23:39.693Z,85.57
2019-01-04T02:24:39.688Z,87.46
2019-01-04T02:25:39.705Z,87.37
2019-01-04T02:26:39.671Z,87.55
2019-01-04T02:27:39.668Z,87.55
2019-01-04T02:28:39.663Z,85.00
2019-01-04T02:29:39.655Z,85.00
2019-01-04T02:30:39.678Z,87.37
2019-01-04T02:31:39.641Z,88.22
2019-01-04T02:32:39.636Z,92.57
2019-01-04T02:33:39.628Z,87.74
2019-01-04T02:34:39.618Z,85.95
2019-01-04T02:35:39.638Z,83.59
2019-01-04T02:36:39.634Z,83.68
2019-01-04T02:37:39.610Z,83.87
2019-01-04T02:38:39.591Z,85.66
2019-01-04T02:39:39.587Z,87.93
2019-01-04T02:40:39.577Z,90.20
2019-01-04T02:41:39.603Z,86.61
2019-01-04T02:42:39.567Z,87.27
2019-01-04T02:43:39.557Z,87.46
2019-01-04T02:44:39.553Z,86.61
2019-01-04T02:45:39.577Z,85.85
2019-01-04T02:46:39.541Z,85.10
2019-01-04T02:47:39.537Z,81.88
2019-01-04T02:48:39.551Z,84.63
2019-01-04T02:49:39.515Z,85.10
2019-01-04T02:50:39.513Z,83.30
2019-01-04T02:51:39.530Z,82.07
2019-01-04T02:52:39.505Z,81.41
2019-01-04T02:53:39.496Z,82.54
2019-01-04T02:54:39.493Z,80.65
2019-01-04T02:55:39.475Z,79.80
2019-01-04T02:56:39.498Z,76.50
2019-01-04T02:57:39.461Z,75.64
2019-01-04T02:58:39.455Z,77.53
2019-01-04T02:59:39.448Z,74.79
2019-01-04T03:00:39.450Z,74.32
2019-01-04T03:01:39.470Z,75.83
2019-01-04T03:02:39.443Z,74.98
2019-01-04T03:03:39.425Z,76.68
2019-01-04T03:04:41.913Z,74.13
2019-01-04T03:05:39.405Z,76.12
2019-01-04T03:06:39.431Z,79.61
2019-01-04T03:07:39.397Z,78.10
2019-01-04T03:08:39.388Z,79.05
2019-01-04T03:09:39.396Z,78.29
2019-01-04T03:10:39.377Z,79.52
2019-01-04T03:11:39.398Z,78.29
2019-01-04T03:12:39.361Z,78.58
2019-01-04T03:13:39.363Z,77.25
2019-01-04T03:14:39.348Z,75.45
2019-01-04T03:15:39.341Z,73.47
2019-01-04T03:16:39.365Z,71.39
2019-01-04T03:17:39.325Z,71.58
2019-01-04T03:18:39.316Z,70.82
2019-01-04T03:19:39.312Z,69.49
2019-01-04T03:20:39.311Z,69.97
2019-01-04T03:21:39.336Z,67.89
2019-01-04T03:22:39.295Z,67.32
2019-01-04T03:23:39.287Z,70.06
2019-01-04T03:24:39.279Z,66.28
2019-01-04T03:25:39.271Z,63.92
2019-01-04T03:26:39.298Z,62.21
2019-01-04T03:27:39.262Z,62.40
2019-01-04T03:28:39.252Z,62.50
2019-01-04T03:29:39.253Z,60.14
2019-01-04T03:30:39.265Z,59.00
2019-01-04T03:31:39.257Z,57.68
2019-01-04T03:32:39.263Z,57.11
2019-01-04T03:33:39.227Z,56.26
2019-01-04T03:34:39.233Z,53.89
2019-01-04T03:35:39.202Z,52.76
2019-01-04T03:36:39.193Z,52.10
2019-01-04T03:37:39.216Z,49.64
2019-01-04T03:38:39.182Z,50.11
2019-01-04T03:39:39.170Z,48.32
2019-01-04T03:40:39.166Z,48.13
2019-01-04T03:41:39.187Z,49.26
2019-01-04T03:42:39.183Z,46.33
2019-01-04T03:43:39.150Z,43.96
2019-01-04T03:44:39.140Z,40.75
2019-01-04T03:45:39.136Z,40.75
2019-01-04T03:46:39.132Z,38.20
2019-01-04T03:47:39.144Z,37.82
2019-01-04T03:48:39.110Z,37.63
2019-01-04T03:49:39.100Z,36.59
2019-01-04T03:50:39.100Z,33.75
2019-01-04T03:51:39.124Z,32.81
2019-01-04T03:52:39.079Z,31.10
2019-01-04T03:53:39.081Z,27.61
2019-01-04T03:54:39.073Z,27.89
2019-01-04T03:55:39.108Z,26.09
2019-01-04T03:56:39.055Z,25.24
2019-01-04T03:57:39.071Z,23.73
2019-01-04T03:58:39.051Z,22.03
2019-01-04T03:59:39.035Z,19.38
2019-01-04T04:00:39.027Z,17.58
2019-01-04T04:01:39.016Z,16.36
2019-01-04T04:02:39.037Z,15.03
2019-01-04T04:03:39.005Z,11.63
2019-01-04T04:04:38.999Z,9.36
2019-01-04T04:05:38.993Z,8.13
2019-01-04T04:06:38.980Z,6.43
2019-01-04T04:07:38.998Z,4.91
2019-01-04T04:08:38.974Z,2.26
2019-01-04T04:09:38.959Z,0.75
2019-01-04T04:10:38.955Z,0.00
2019-01-04T04:11:38.947Z,0.00
2019-01-04T04:12:38.962Z,0.00
2019-01-04T04:13:38.925Z,0.00
2019-01-04T04:14:38.923Z,0.00
2019-01-04T04:15:38.913Z,0.00
2019-01-04T04:16:38.905Z,0.00
2019-01-04T04:17:38.930Z,0.00
2019-01-04T04:18:38.888Z,0.00
2019-01-04T04:19:38.884Z,0.00
2019-01-04T04:20:38.891Z,0.00
2019-01-04T04:21:38.897Z,0.00
2019-01-04T04:22:38.891Z,0.00
2019-01-04T04:23:38.881Z,0.00
2019-01-04T04:24:38.848Z,0.00
2019-01-04T04:25:38.841Z,0.00
2019-01-04T04:26:38.834Z,0.00
2019-01-04T04:27:38.856Z,0.00
2019-01-04T04:28:38.818Z,0.00
2019-01-04T04:29:38.809Z,0.00
2019-01-04T04:30:38.803Z,0.00
2019-01-04T04:31:38.801Z,0.00
2019-01-04T04:32:38.814Z,0.00
2019-01-04T04:33:38.781Z,0.00
2019-01-04T04:34:38.775Z,0.00
2019-01-04T04:35:38.768Z,0.00
2019-01-04T04:36:38.765Z,0.00
2019-01-04T04:37:38.784Z,0.00
2019-01-04T04:38:38.753Z,0.00
2019-01-04T04:39:38.741Z,0.00
2019-01-04T04:40:38.732Z,0.00
2019-01-04T04:41:38.722Z,0.00
2019-01-04T04:42:38.745Z,0.00
2019-01-04T04:43:38.706Z,0.00
2019-01-04T04:44:38.704Z,0.00
2019-01-04T04:45:38.692Z,0.00
2019-01-04T04:46:38.705Z,0.00
2019-01-04T04:47:38.706Z,0.00
2019-01-04T04:48:38.682Z,0.00
2019-01-04T04:49:38.670Z,0.00
2019-01-04T04:50:38.656Z,0.00
2019-01-04T04:51:38.660Z,0.00
2019-01-04T04:52:38.672Z,0.00
2019-01-04T04:53:38.634Z,0.00
2019-01-04T04:54:38.625Z,0.00
2019-01-04T04:55:38.619Z,0.00
2019-01-04T04:56:38.610Z,0.00
2019-01-04T04:57:38.633Z,0.00
2019-01-04T04:58:38.632Z,0.00
2019-01-04T04:59:38.589Z,0.00
2019-01-04T05:00:38.582Z,0.00
2019-01-04T05:01:38.584Z,0.00
2019-01-04T05:02:38.566Z,0.00
2019-01-04T05:03:38.590Z,0.00
2019-01-04T05:04:38.559Z,0.00
2019-01-04T05:05:38.545Z,0.00
2019-01-04T05:06:38.540Z,0.00
2019-01-04T05:07:38.551Z,0.00
2019-01-04T05:08:38.553Z,0.00
2019-01-04T05:09:38.517Z,0.00
2019-01-04T05:10:38.511Z,0.00
2019-01-04T05:11:38.506Z,0.00
2019-01-04T05:12:38.511Z,0.00
2019-01-04T05:13:38.512Z,0.00
2019-01-04T05:14:38.480Z,0.00
2019-01-04T05:15:38.474Z,0.00
2019-01-04T05:16:38.463Z,0.00
2019-01-04T05:17:38.457Z,0.00
2019-01-04T05:18:38.492Z,0.00
2019-01-04T05:19:38.445Z,0.00
2019-01-04T05:20:38.434Z,0.00
2019-01-04T05:21:38.426Z,0.00
2019-01-04T05:22:38.419Z,0.00
2019-01-04T05:23:38.436Z,0.00
2019-01-04T05:24:38.404Z,0.00
2019-01-04T05:25:38.405Z,0.00
2019-01-04T05:26:38.390Z,0.00
2019-01-04T05:27:38.383Z,0.00
2019-01-04T05:28:38.403Z,0.00
2019-01-04T05:29:38.377Z,0.00
2019-01-04T05:30:38.359Z,0.00
2019-01-04T05:31:38.363Z,0.00
2019-01-04T05:32:38.344Z,0.00
2019-01-04T05:33:38.362Z,0.00
2019-01-04T05:34:38.358Z,0.00
2019-01-04T05:35:38.320Z,0.00
2019-01-04T05:36:38.314Z,0.00
2019-01-04T05:37:38.306Z,0.00
2019-01-04T05:38:38.300Z,0.00
2019-01-04T05:39:38.320Z,0.00
2019-01-04T05:40:38.285Z,0.00
2019-01-04T05:41:38.279Z,0.00
2019-01-04T05:42:38.280Z,0.00
2019-01-04T05:43:38.261Z,0.00
2019-01-04T05:44:38.363Z,0.00
2019-01-04T05:45:38.249Z,0.00
2019-01-04T05:46:38.246Z,0.00
2019-01-04T05:47:38.231Z,0.00
2019-01-04T05:48:38.231Z,0.00
2019-01-04T05:49:38.246Z,0.00
2019-01-04T05:50:38.209Z,0.00
2019-01-04T05:51:38.219Z,0.00
2019-01-04T05:52:38.200Z,0.00
2019-01-04T05:53:38.187Z,0.00
2019-01-04T05:54:38.551Z,0.00
2019-01-04T05:55:38.172Z,0.00
2019-01-04T05:56:38.169Z,0.00
2019-01-04T05:57:38.162Z,0.00
2019-01-04T05:58:38.178Z,0.00
2019-01-04T05:59:38.142Z,0.00
2019-01-04T06:00:38.165Z,0.00
2019-01-04T06:01:38.128Z,0.00
2019-01-04T06:02:38.121Z,0.00
2019-01-04T06:03:38.120Z,0.00
2019-01-04T06:04:38.138Z,0.00
2019-01-04T06:05:38.097Z,0.00
2019-01-04T06:06:38.089Z,0.00
2019-01-04T06:07:38.085Z,0.00
2019-01-04T06:08:38.084Z,0.00
2019-01-04T06:09:38.085Z,0.00
2019-01-04T06:10:38.091Z,0.00
2019-01-04T06:11:38.056Z,0.00
2019-01-04T06:12:38.045Z,0.00
2019-01-04T06:13:38.046Z,0.00
2019-01-04T06:14:38.034Z,0.00
2019-01-04T06:15:38.049Z,0.00
2019-01-04T06:16:38.024Z,0.00
2019-01-04T06:17:38.019Z,0.00
2019-01-04T06:18:38.007Z,0.00
2019-01-04T06:19:38.003Z,0.00
2019-01-04T06:20:38.023Z,0.00
2019-01-04T06:21:37.985Z,0.00
2019-01-04T06:22:38.091Z,0.00
2019-01-04T06:23:37.967Z,0.00
2019-01-04T06:24:37.957Z,0.00
2019-01-04T06:25:37.991Z,0.00
2019-01-04T06:26:37.970Z,0.00
2019-01-04T06:27:37.939Z,0.00
2019-01-04T06:28:37.934Z,0.00
2019-01-04T06:29:37.923Z,0.00
2019-01-04T06:30:37.913Z,0.00
2019-01-04T06:31:37.932Z,0.00
2019-01-04T06:32:37.901Z,0.00
2019-01-04T06:33:37.891Z,0.00
2019-01-04T06:34:37.883Z,0.00
2019-01-04T06:35:37.880Z,2.64
2019-01-04T06:36:37.913Z,3.50
2019-01-04T06:37:37.863Z,8.13
2019-01-04T06:38:37.859Z,11.72
2019-01-04T06:39:37.848Z,8.70
2019-01-04T06:40:37.848Z,11.35
2019-01-04T06:41:37.857Z,13.90
2019-01-04T06:42:37.826Z,15.31
2019-01-04T06:43:37.818Z,15.31
2019-01-04T06:44:37.820Z,15.50
2019-01-04T06:45:37.805Z,18.06
2019-01-04T06:46:37.829Z,15.60
2019-01-04T06:47:37.788Z,15.22
2019-01-04T06:48:37.784Z,19.19
2019-01-04T06:49:37.774Z,23.07
2019-01-04T06:50:37.765Z,20.32
2019-01-04T06:51:37.797Z,24.11
2019-01-04T06:52:37.787Z,24.87
2019-01-04T06:53:37.755Z,28.84
2019-01-04T06:54:37.738Z,25.52
2019-01-04T06:55:37.730Z,26.28
2019-01-04T06:56:37.734Z,28.17
2019-01-04T06:57:37.746Z,30.26
2019-01-04T06:58:37.709Z,33.37
2019-01-04T06:59:37.701Z,35.17
2019-01-04T07:00:37.691Z,34.04
2019-01-04T07:01:37.717Z,32.90
2019-01-04T07:02:37.680Z,34.99
2019-01-04T07:03:37.702Z,41.70
2019-01-04T07:04:37.663Z,40.84
2019-01-04T07:05:40.532Z,39.24
2019-01-04T07:06:37.650Z,34.89
2019-01-04T07:07:37.645Z,36.49
2019-01-04T07:08:37.661Z,39.05
2019-01-04T07:09:37.631Z,39.24
2019-01-04T07:10:37.619Z,41.70
2019-01-04T07:11:37.611Z,41.70
2019-01-04T07:12:37.606Z,41.89
2019-01-04T07:13:37.635Z,45.95
2019-01-04T07:14:37.587Z,45.20
2019-01-04T07:15:37.584Z,44.63
2019-01-04T07:16:37.576Z,46.80
2019-01-04T07:17:37.575Z,50.02
2019-01-04T07:18:37.587Z,54.46
2019-01-04T07:19:37.551Z,50.30
2019-01-04T07:20:37.549Z,54.08
2019-01-04T07:21:37.537Z,50.02
2019-01-04T07:22:37.533Z,48.41
2019-01-04T07:23:37.554Z,50.30
2019-01-04T07:24:37.518Z,50.02
2019-01-04T07:25:37.509Z,51.53
2019-01-04T07:26:37.505Z,53.99
2019-01-04T07:27:37.493Z,59.95
2019-01-04T07:28:37.519Z,57.01
2019-01-04T07:29:37.488Z,54.37
2019-01-04T07:30:37.478Z,56.16
2019-01-04T07:31:37.479Z,53.52
2019-01-04T07:32:37.486Z,55.41
2019-01-04T07:33:37.450Z,57.68
2019-01-04T07:34:37.441Z,63.45
2019-01-04T07:35:37.436Z,60.04
2019-01-04T07:36:37.457Z,60.04
2019-01-04T07:37:37.424Z,62.31
2019-01-04T07:38:37.446Z,64.01
2019-01-04T07:39:37.406Z,70.06
2019-01-04T07:40:37.400Z,73.94
2019-01-04T07:41:37.391Z,72.52
2019-01-04T07:42:37.412Z,73.18
2019-01-04T07:43:37.380Z,70.25
2019-01-04T07:44:37.385Z,69.68
2019-01-04T07:45:37.366Z,77.06
2019-01-04T07:46:37.374Z,74.69
2019-01-04T07:47:38.007Z,68.17
2019-01-04T07:48:37.369Z,69.59
2019-01-04T07:49:37.335Z,73.28
2019-01-04T07:50:37.333Z,73.09
2019-01-04T07:51:37.324Z,77.44
2019-01-04T07:52:37.343Z,74.88
2019-01-04T07:53:37.307Z,82.35
2019-01-04T07:54:37.300Z,76.78
2019-01-04T07:55:37.298Z,78.95
2019-01-04T07:56:37.288Z,77.06
2019-01-04T07:57:37.310Z,78.01
2019-01-04T07:58:37.273Z,78.86
2019-01-04T07:59:37.270Z,78.58
2019-01-04T08:00:37.256Z,82.73
2019-01-04T08:01:37.258Z,80.18
2019-01-04T08:02:37.280Z,81.51
2019-01-04T08:03:37.237Z,77.25
2019-01-04T08:04:37.231Z,77.25
2019-01-04T08:05:37.226Z,77.63
2019-01-04T08:07:37.237Z,83.30
2019-01-04T08:08:37.203Z,81.79
2019-01-04T08:09:37.204Z,87.27
2019-01-04T08:10:37.189Z,84.25
2019-01-04T08:11:37.186Z,82.54
2019-01-04T08:12:37.199Z,83.21
2019-01-04T08:13:37.168Z,82.54
2019-01-04T08:14:37.160Z,82.26
2019-01-04T08:15:37.158Z,86.61
2019-01-04T08:16:37.152Z,85.47
2019-01-04T08:17:38.381Z,84.72
2019-01-04T08:18:40.004Z,88.74
2019-01-04T08:19:37.128Z,87.23
2019-01-04T08:20:37.117Z,93.47
2019-01-04T08:21:37.112Z,94.13
2019-01-04T08:22:37.101Z,91.58
2019-01-04T08:23:37.128Z,88.26
2019-01-04T08:24:37.090Z,89.40
2019-01-04T08:25:37.092Z,92.05
2019-01-04T08:26:37.076Z,89.73
2019-01-04T08:27:42.529Z,92.61
2019-01-04T08:28:37.062Z,91.77
2019-01-04T08:29:37.059Z,94.42
2019-01-04T08:30:37.047Z,90.06
2019-01-04T08:31:37.043Z,92.33
2019-01-04T08:32:37.064Z,88.45
2019-01-04T08:33:37.059Z,89.02
2019-01-04T08:34:37.019Z,88.83
2019-01-04T08:35:37.118Z,94.98
2019-01-04T08:36:37.011Z,96.40
2019-01-04T08:37:37.001Z,96.21
2019-01-04T08:38:37.022Z,94.23
2019-01-04T08:39:36.989Z,91.39
2019-01-04T08:40:36.997Z,91.96
2019-01-04T08:41:36.977Z,94.60
2019-01-04T08:42:37.458Z,94.89
2019-01-04T08:43:38.175Z,89.21
2019-01-04T08:44:36.971Z,89.78
2019-01-04T08:45:36.956Z,92.61
2019-01-04T08:46:36.947Z,97.44
2019-01-04T08:47:36.935Z,93.94
2019-01-04T08:48:47.579Z,90.25
2019-01-04T08:49:36.921Z,93.94
2019-01-04T08:50:36.927Z,91.67
2019-01-04T08:51:36.912Z,94.98
2019-01-04T08:52:36.905Z,92.71
2019-01-04T08:53:36.922Z,93.56
2019-01-04T08:54:36.888Z,91.77
2019-01-04T08:55:36.886Z,92.24
2019-01-04T08:56:36.878Z,92.61
2019-01-04T08:57:36.900Z,91.67
2019-01-04T08:58:37.502Z,99.99
2019-01-04T08:59:36.856Z,94.13
2019-01-04T09:00:36.845Z,93.47
2019-01-04T09:01:36.846Z,94.89
2019-01-04T09:02:36.854Z,92.80
2019-01-04T09:03:36.854Z,99.52
2019-01-04T09:04:36.877Z,95.74
2019-01-04T09:05:36.820Z,94.98
2019-01-04T09:06:36.816Z,93.85
2019-01-04T09:07:36.813Z,96.50
2019-01-04T09:08:36.804Z,97.91
2019-01-04T09:09:37.581Z,96.31
2019-01-04T09:10:36.792Z,96.59
2019-01-04T09:11:36.780Z,97.82
2019-01-04T09:12:36.841Z,98.01
2019-01-04T09:13:36.785Z,99.62
2019-01-04T09:14:36.792Z,95.55
2019-01-04T09:15:36.764Z,98.29
2019-01-04T09:16:36.751Z,99.71
2019-01-04T09:17:36.742Z,99.52
2019-01-04T09:18:36.738Z,96.50
2019-01-04T09:19:36.901Z,99.05
2019-01-04T09:20:36.725Z,99.99
2019-01-04T09:21:36.783Z,96.50
2019-01-04T09:22:36.736Z,94.79
2019-01-04T09:23:36.797Z,95.93
2019-01-04T09:24:36.698Z,96.40
2019-01-04T09:25:36.723Z,98.86
2019-01-04T09:26:36.719Z,94.04
2019-01-04T09:27:36.680Z,93.94
2019-01-04T09:28:36.722Z,98.86
2019-01-04T09:29:36.796Z,98.58
2019-01-04T09:30:36.665Z,94.42
2019-01-04T09:31:36.679Z,98.58
2019-01-04T09:32:36.649Z,96.31
2019-01-04T09:33:36.651Z,96.31
2019-01-04T09:34:36.665Z,95.69
2019-01-04T09:35:37.462Z,99.38
2019-01-04T09:36:36.624Z,98.91
2019-01-04T09:37:36.617Z,98.06
2019-01-04T09:38:36.642Z,99.99
2019-01-04T09:39:36.609Z,97.58
2019-01-04T09:40:36.632Z,99.01
2019-01-04T09:41:36.601Z,97.96
2019-01-04T09:42:36.595Z,98.34
2019-01-04T09:43:36.585Z,98.91
2019-01-04T09:44:36.593Z,96.83
2019-01-04T09:45:36.601Z,96.54
2019-01-04T09:46:36.567Z,96.45
2019-01-04T09:47:36.558Z,90.63
2019-01-04T09:48:36.564Z,94.32
2019-01-04T09:49:36.553Z,91.58
2019-01-04T09:50:37.526Z,92.71
2019-01-04T09:51:36.536Z,91.39
2019-01-04T09:52:36.530Z,89.97
2019-01-04T09:53:36.579Z,93.75
2019-01-04T09:54:36.519Z,91.10
2019-01-04T09:55:36.517Z,87.41
2019-01-04T09:56:36.537Z,92.61
2019-01-04T09:57:36.515Z,93.09
2019-01-04T09:58:36.495Z,89.97
2019-01-04T09:59:36.490Z,92.71
2019-01-04T10:00:36.478Z,87.51
2019-01-04T10:01:36.506Z,87.70
2019-01-04T10:02:36.467Z,91.39
2019-01-04T10:03:36.475Z,89.12
2019-01-04T10:04:36.455Z,89.69
2019-01-04T10:05:36.453Z,90.34
2019-01-04T10:06:36.481Z,90.53
2019-01-04T10:07:36.444Z,89.97
2019-01-04T10:08:36.436Z,89.54
2019-01-04T10:09:36.440Z,92.57
2019-01-04T10:10:36.418Z,94.18
2019-01-04T10:11:36.503Z,92.57
2019-01-04T10:12:36.408Z,96.35
2019-01-04T10:13:36.397Z,97.87
2019-01-04T10:14:36.402Z,96.54
2019-01-04T10:15:36.395Z,95.40
2019-01-04T10:16:36.408Z,96.83
2019-01-04T10:17:36.373Z,97.96
2019-01-04T10:18:36.370Z,96.35
2019-01-04T10:19:36.362Z,97.96
2019-01-04T10:20:36.523Z,99.99
2019-01-04T10:21:36.378Z,98.82
2019-01-04T10:22:36.351Z,98.53
2019-01-04T10:23:36.344Z,96.45
2019-01-04T10:24:36.378Z,99.01
2019-01-04T10:25:36.340Z,97.77
2019-01-04T10:26:36.359Z,98.72
2019-01-04T10:27:36.317Z,97.87
2019-01-04T10:28:36.320Z,97.58
2019-01-04T10:29:36.312Z,99.10
2019-01-04T10:30:36.311Z,95.50
2019-01-04T10:31:38.514Z,97.77
2019-01-04T10:32:36.291Z,98.15
2019-01-04T10:33:36.410Z,96.92
2019-01-04T10:34:36.282Z,98.91
2019-01-04T10:35:36.292Z,97.58
2019-01-04T10:36:36.336Z,99.99
2019-01-04T10:37:36.294Z,94.84
2019-01-04T10:38:36.263Z,98.34
2019-01-04T10:39:36.266Z,94.18
2019-01-04T10:40:36.241Z,96.83
2019-01-04T10:41:36.270Z,97.39
2019-01-04T10:42:36.229Z,97.96
2019-01-04T10:43:36.230Z,96.73
2019-01-04T10:44:36.220Z,95.97
2019-01-04T10:45:36.217Z,97.11
2019-01-04T10:46:36.237Z,95.78
2019-01-04T10:47:36.214Z,96.92
2019-01-04T10:48:36.200Z,96.54
2019-01-04T10:49:36.197Z,96.26
2019-01-04T10:50:36.189Z,97.49
2019-01-04T10:51:36.288Z,97.77
2019-01-04T10:52:36.173Z,95.03
2019-01-04T10:53:36.169Z,96.45
2019-01-04T10:54:36.164Z,94.18
2019-01-04T10:55:36.198Z,95.31
2019-01-04T10:56:36.188Z,95.97
2019-01-04T10:57:36.145Z,95.97
2019-01-04T10:58:36.143Z,94.18
2019-01-04T10:59:39.761Z,94.27
2019-01-04T11:00:36.219Z,96.45
2019-01-04T11:01:36.225Z,94.18
2019-01-04T11:02:36.145Z,94.46
2019-01-04T11:03:36.126Z,91.72
2019-01-04T11:04:36.117Z,94.84
2019-01-04T11:05:36.106Z,92.66
2019-01-04T11:06:36.149Z,94.18
2019-01-04T11:07:36.135Z,94.18
2019-01-04T11:08:36.115Z,95.78
2019-01-04T11:09:36.077Z,94.27
2019-01-04T11:10:36.071Z,97.30
2019-01-04T11:11:36.067Z,94.37
2019-01-04T11:12:36.088Z,92.47
2019-01-04T11:13:36.053Z,94.74
2019-01-04T11:14:36.048Z,93.32
2019-01-04T11:15:36.040Z,94.08
2019-01-04T11:16:36.057Z,92.38
2019-01-04T11:17:36.535Z,94.37
2019-01-04T11:18:36.022Z,90.96
2019-01-04T11:19:36.016Z,95.69
2019-01-04T11:20:36.014Z,93.13
2019-01-04T11:21:36.005Z,94.27
2019-01-04T11:22:36.078Z,93.42
2019-01-04T11:23:36.017Z,95.78
2019-01-04T11:24:35.988Z,95.40
2019-01-04T11:25:35.980Z,93.70
2019-01-04T11:26:35.982Z,94.27
2019-01-04T11:27:35.995Z,95.31
2019-01-04T11:28:35.965Z,95.88
2019-01-04T11:29:35.955Z,95.97
2019-01-04T11:30:35.950Z,94.27
2019-01-04T11:31:35.945Z,94.93
2019-01-04T11:32:35.965Z,96.54
2019-01-04T11:33:35.933Z,96.83
2019-01-04T11:34:35.928Z,96.07
2019-01-04T11:35:35.925Z,96.73
2019-01-04T11:36:35.916Z,95.55
2019-01-04T11:37:35.933Z,95.59
2019-01-04T11:38:35.903Z,96.26
2019-01-04T11:39:35.898Z,99.99
2019-01-04T11:40:35.891Z,98.96
2019-01-04T11:41:35.886Z,99.99
2019-01-04T11:42:35.906Z,97.82
2019-01-04T11:43:35.873Z,96.40
2019-01-04T11:44:35.870Z,99.90
2019-01-04T11:45:35.866Z,97.54
2019-01-04T11:46:35.858Z,96.40
2019-01-04T11:47:35.881Z,98.86
2019-01-04T11:48:35.848Z,97.63
2019-01-04T11:49:35.847Z,99.99
2019-01-04T11:50:35.865Z,98.39
2019-01-04T11:51:35.830Z,99.99
2019-01-04T11:52:35.824Z,97.25
2019-01-04T11:53:35.844Z,97.25
2019-01-04T11:54:35.813Z,98.20
2019-01-04T11:55:35.843Z,98.01
2019-01-04T11:56:35.803Z,94.32
2019-01-04T11:57:35.823Z,96.21
2019-01-04T11:58:35.790Z,98.96
2019-01-04T11:59:35.783Z,99.52
2019-01-04T12:00:35.809Z,96.50
2019-01-04T12:01:35.777Z,98.77
2019-01-04T12:02:35.771Z,99.62
2019-01-04T12:03:35.788Z,98.11
2019-01-04T12:04:35.757Z,96.40
2019-01-04T12:05:35.754Z,97.54
2019-01-04T12:06:35.747Z,96.97
2019-01-04T12:07:35.741Z,96.97
2019-01-04T12:08:35.761Z,95.83
2019-01-04T12:09:35.731Z,98.20
2019-01-04T12:10:35.728Z,97.68
2019-01-04T12:11:35.714Z,96.35
2019-01-04T12:12:35.713Z,96.35
2019-01-04T12:13:35.730Z,97.20
2019-01-04T12:14:41.236Z,97.30
2019-01-04T12:15:35.699Z,96.35
2019-01-04T12:16:35.688Z,93.51
2019-01-04T12:17:35.683Z,96.64
2019-01-04T12:18:35.702Z,95.78
2019-01-04T12:19:35.673Z,97.20
2019-01-04T12:20:35.693Z,95.88
2019-01-04T12:21:35.661Z,93.99
2019-01-04T12:22:35.665Z,93.23
2019-01-04T12:23:35.673Z,93.99
2019-01-04T12:24:35.645Z,92.19
2019-01-04T12:25:35.637Z,90.30
2019-01-04T12:26:35.631Z,91.24
2019-01-04T12:27:35.626Z,90.30
2019-01-04T12:28:35.645Z,90.48
2019-01-04T12:29:35.618Z,90.11
2019-01-04T12:30:35.607Z,91.24
2019-01-04T12:31:35.601Z,93.80
2019-01-04T12:32:35.595Z,90.01
2019-01-04T12:33:35.617Z,90.11
2019-01-04T12:34:35.590Z,89.63
2019-01-04T12:35:35.580Z,90.86
2019-01-04T12:36:35.572Z,90.30
2019-01-04T12:37:35.568Z,93.80
2019-01-04T12:38:35.588Z,89.92
2019-01-04T12:39:35.557Z,90.20
2019-01-04T12:40:35.552Z,90.11
2019-01-04T12:41:35.548Z,90.96
2019-01-04T12:42:35.541Z,91.05
2019-01-04T12:43:35.558Z,88.68
2019-01-04T12:44:35.527Z,88.21
2019-01-04T12:45:35.521Z,87.93
2019-01-04T12:46:35.515Z,85.57
2019-01-04T12:47:35.510Z,84.71
2019-01-04T12:48:35.530Z,87.08
2019-01-04T12:49:35.503Z,85.57
2019-01-04T12:50:35.491Z,90.20
2019-01-04T12:51:35.486Z,87.27
2019-01-04T12:52:35.480Z,88.02
2019-01-04T12:53:35.501Z,87.36
2019-01-04T12:54:35.467Z,87.55
2019-01-04T12:55:35.471Z,92.85
2019-01-04T12:56:35.457Z,88.68
2019-01-04T12:57:35.453Z,87.36
2019-01-04T12:58:35.469Z,87.65